createdAt,value
2016-02-05T00:00:36.356Z,958.3
2016-02-05T00:01:36.296Z,958.24
2016-02-05T00:02:36.236Z,958.31
2016-02-05T00:03:36.176Z,958.35
2016-02-05T00:04:36.133Z,958.37
2016-02-05T00:05:36.072Z,958.37
2016-02-05T00:06:36.013Z,958.32
2016-02-05T00:07:35.953Z,958.38
2016-02-05T00:08:35.893Z,958.37
2016-02-05T00:09:35.864Z,958.34
2016-02-05T00:10:35.806Z,958.36
2016-02-05T00:11:35.730Z,958.36
2016-02-05T00:12:35.686Z,958.37
2016-02-05T00:13:35.611Z,958.4
2016-02-05T00:14:35.550Z,958.48
2016-02-05T00:15:35.527Z,958.44
2016-02-05T00:16:35.452Z,958.46
2016-02-05T00:17:35.393Z,958.47
2016-02-05T00:18:35.333Z,958.48
2016-02-05T00:19:35.273Z,958.5
2016-02-05T00:20:35.214Z,958.45
2016-02-05T00:21:35.153Z,958.47
2016-02-05T00:22:35.095Z,958.44
2016-02-05T00:23:35.050Z,958.44
2016-02-05T00:24:34.990Z,958.4
2016-02-05T00:25:34.936Z,958.47
2016-02-05T00:26:34.876Z,958.49
2016-02-05T00:27:34.816Z,958.56
2016-02-05T00:28:34.756Z,958.6
2016-02-05T00:29:34.697Z,958.58
2016-02-05T00:30:34.643Z,958.62
2016-02-05T00:31:34.583Z,958.62
2016-02-05T00:32:34.529Z,958.67
2016-02-05T00:33:34.469Z,958.67
2016-02-05T00:34:34.425Z,958.67
2016-02-05T00:35:34.359Z,958.68
2016-02-05T00:36:34.299Z,958.65
2016-02-05T00:37:34.239Z,958.66
2016-02-05T00:38:34.211Z,958.66
2016-02-05T00:39:34.151Z,958.67
2016-02-05T00:40:34.075Z,958.67
2016-02-05T00:41:34.031Z,958.7
2016-02-05T00:42:33.956Z,958.74
2016-02-05T00:43:33.903Z,958.77
2016-02-05T00:44:33.842Z,958.77
2016-02-05T00:45:33.783Z,958.77
2016-02-05T00:46:33.739Z,958.8
2016-02-05T00:47:33.679Z,958.78
2016-02-05T00:48:33.651Z,958.79
2016-02-05T00:49:33.559Z,958.81
2016-02-05T00:50:33.500Z,958.85
2016-02-05T00:51:33.456Z,958.83
2016-02-05T00:52:33.396Z,958.91
2016-02-05T00:53:33.352Z,958.97
2016-02-05T00:54:33.276Z,958.9
2016-02-05T00:55:33.220Z,958.96
2016-02-05T00:56:33.176Z,958.98
2016-02-05T00:57:33.119Z,958.97
2016-02-05T00:58:33.059Z,959.02
2016-02-05T00:59:33.031Z,959.08
2016-02-05T01:00:32.940Z,959.08
2016-02-05T01:01:32.880Z,959.15
2016-02-05T01:02:32.851Z,959.17
2016-02-05T01:03:32.776Z,959.18
2016-02-05T01:04:32.717Z,959.18
2016-02-05T01:05:32.657Z,959.17
2016-02-05T01:06:32.612Z,959.19
2016-02-05T01:07:32.554Z,959.22
2016-02-05T01:08:32.525Z,959.18
2016-02-05T01:09:32.434Z,959.15
2016-02-05T01:10:32.390Z,959.16
2016-02-05T01:11:32.329Z,959.17
2016-02-05T01:12:32.256Z,959.25
2016-02-05T01:13:32.211Z,959.24
2016-02-05T01:14:32.167Z,959.27
2016-02-05T01:15:32.107Z,959.34
2016-02-05T01:16:32.047Z,959.35
2016-02-05T01:17:31.988Z,959.36
2016-02-05T01:18:31.932Z,959.38
2016-02-05T01:19:31.872Z,959.43
2016-02-05T01:20:31.811Z,959.45
2016-02-05T01:21:31.753Z,959.46
2016-02-05T01:22:31.708Z,959.45
2016-02-05T01:23:31.648Z,959.51
2016-02-05T01:24:31.588Z,959.51
2016-02-05T01:25:31.545Z,959.55
2016-02-05T01:26:31.484Z,959.49
2016-02-05T01:27:31.445Z,959.51
2016-02-05T01:28:31.399Z,959.51
2016-02-05T01:29:31.338Z,959.54
2016-02-05T01:30:31.247Z,959.52
2016-02-05T01:31:31.188Z,959.52
2016-02-05T01:32:31.127Z,959.54
2016-02-05T01:33:31.083Z,959.55
2016-02-05T01:34:31.040Z,959.53
2016-02-05T01:35:30.984Z,959.54
2016-02-05T01:36:30.970Z,959.52
2016-02-05T01:37:30.911Z,959.55
2016-02-05T01:38:30.805Z,959.54
2016-02-05T01:39:30.761Z,959.53
2016-02-05T01:40:30.685Z,959.53
2016-02-05T01:41:30.625Z,959.53
2016-02-05T01:42:30.596Z,959.56
2016-02-05T01:43:30.536Z,959.57
2016-02-05T01:44:30.461Z,959.52
2016-02-05T01:45:30.448Z,959.56
2016-02-05T01:46:30.357Z,959.57
2016-02-05T01:47:30.297Z,959.55
2016-02-05T01:48:30.239Z,959.55
2016-02-05T01:49:30.194Z,959.56
2016-02-05T01:50:30.150Z,959.54
2016-02-05T01:51:30.090Z,959.54
2016-02-05T01:52:30.018Z,959.51
2016-02-05T01:53:29.959Z,959.51
2016-02-05T01:54:29.898Z,959.53
2016-02-05T01:55:29.842Z,959.56
2016-02-05T01:56:29.782Z,959.53
2016-02-05T01:57:29.723Z,959.53
2016-02-05T01:58:29.671Z,959.55
2016-02-05T01:59:29.642Z,959.55
2016-02-05T02:00:29.567Z,959.49
2016-02-05T02:01:29.523Z,959.56
2016-02-05T02:02:29.447Z,959.49
2016-02-05T02:03:29.403Z,959.56
2016-02-05T02:04:29.333Z,959.57
2016-02-05T02:05:29.273Z,959.61
2016-02-05T02:06:29.228Z,959.57
2016-02-05T02:07:29.168Z,959.62
2016-02-05T02:08:29.109Z,959.59
2016-02-05T02:09:29.050Z,959.61
2016-02-05T02:10:29.006Z,959.64
2016-02-05T02:11:28.931Z,959.7
2016-02-05T02:12:28.886Z,959.71
2016-02-05T02:13:28.827Z,959.72
2016-02-05T02:14:28.767Z,959.69
2016-02-05T02:15:28.707Z,959.72
2016-02-05T02:16:28.648Z,959.68
2016-02-05T02:17:28.587Z,959.73
2016-02-05T02:18:28.559Z,959.73
2016-02-05T02:19:28.515Z,959.71
2016-02-05T02:20:28.441Z,959.73
2016-02-05T02:21:28.381Z,959.75
2016-02-05T02:22:28.322Z,959.71
2016-02-05T02:23:28.278Z,959.76
2016-02-05T02:24:28.219Z,959.77
2016-02-05T02:25:28.158Z,959.76
2016-02-05T02:26:28.099Z,959.71
2016-02-05T02:27:28.039Z,959.71
2016-02-05T02:28:27.982Z,959.72
2016-02-05T02:29:27.937Z,959.66
2016-02-05T02:30:27.867Z,959.67
2016-02-05T02:31:27.807Z,959.68
2016-02-05T02:32:27.779Z,959.72
2016-02-05T02:33:27.718Z,959.7
2016-02-05T02:34:27.644Z,959.68
2016-02-05T02:35:27.599Z,959.71
2016-02-05T02:36:27.540Z,959.72
2016-02-05T02:37:27.464Z,959.74
2016-02-05T02:38:27.420Z,959.75
2016-02-05T02:39:27.360Z,959.75
2016-02-05T02:40:27.317Z,959.74
2016-02-05T02:41:27.241Z,959.74
2016-02-05T02:42:27.196Z,959.7
2016-02-05T02:43:27.138Z,959.76
2016-02-05T02:44:27.083Z,959.79
2016-02-05T02:45:27.023Z,959.8
2016-02-05T02:46:26.962Z,959.82
2016-02-05T02:47:26.903Z,959.85
2016-02-05T02:48:26.859Z,959.87
2016-02-05T02:49:26.814Z,959.87
2016-02-05T02:50:26.770Z,959.88
2016-02-05T02:51:26.695Z,959.88
2016-02-05T02:52:26.651Z,959.92
2016-02-05T02:53:26.593Z,959.91
2016-02-05T02:54:26.534Z,959.94
2016-02-05T02:55:26.458Z,959.91
2016-02-05T02:56:26.398Z,959.94
2016-02-05T02:57:26.354Z,959.94
2016-02-05T02:58:26.296Z,959.94
2016-02-05T02:59:26.252Z,960
2016-02-05T03:00:26.180Z,959.99
2016-02-05T03:01:26.120Z,960.04
2016-02-05T03:02:26.075Z,960
2016-02-05T03:03:26.032Z,959.99
2016-02-05T03:04:25.972Z,960.01
2016-02-05T03:05:25.914Z,960.05
2016-02-05T03:06:25.853Z,960.08
2016-02-05T03:07:25.794Z,960.12
2016-02-05T03:08:25.733Z,960.09
2016-02-05T03:09:25.690Z,960.09
2016-02-05T03:10:25.614Z,960.08
2016-02-05T03:11:25.555Z,960.07
2016-02-05T03:12:25.510Z,960.12
2016-02-05T03:13:25.467Z,960.13
2016-02-05T03:14:25.396Z,960.19
2016-02-05T03:15:25.355Z,960.2
2016-02-05T03:16:25.278Z,960.24
2016-02-05T03:17:25.235Z,960.19
2016-02-05T03:18:25.175Z,960.26
2016-02-05T03:19:25.130Z,960.22
2016-02-05T03:20:25.075Z,960.28
2016-02-05T03:21:25.015Z,960.29
2016-02-05T03:22:24.956Z,960.29
2016-02-05T03:23:24.895Z,960.3
2016-02-05T03:24:24.836Z,960.3
2016-02-05T03:25:24.776Z,960.32
2016-02-05T03:26:24.717Z,960.33
2016-02-05T03:27:24.673Z,960.36
2016-02-05T03:28:24.613Z,960.36
2016-02-05T03:29:24.568Z,960.39
2016-02-05T03:30:24.509Z,960.37
2016-02-05T03:31:24.445Z,960.38
2016-02-05T03:32:24.402Z,960.4
2016-02-05T03:33:24.341Z,960.48
2016-02-05T03:34:24.281Z,960.46
2016-02-05T03:35:24.221Z,960.49
2016-02-05T03:36:24.162Z,960.49
2016-02-05T03:37:24.118Z,960.53
2016-02-05T03:38:24.059Z,960.52
2016-02-05T03:39:24.000Z,960.53
2016-02-05T03:40:23.939Z,960.55
2016-02-05T03:41:23.881Z,960.53
2016-02-05T03:42:23.820Z,960.57
2016-02-05T03:43:23.761Z,960.62
2016-02-05T03:44:23.717Z,960.61
2016-02-05T03:45:23.674Z,960.61
2016-02-05T03:46:23.599Z,960.64
2016-02-05T03:47:23.554Z,960.66
2016-02-05T03:48:23.511Z,960.7
2016-02-05T03:49:23.450Z,960.73
2016-02-05T03:50:23.375Z,960.77
2016-02-05T03:51:23.330Z,960.76
2016-02-05T03:52:23.256Z,960.75
2016-02-05T03:53:23.227Z,960.77
2016-02-05T03:54:23.151Z,960.76
2016-02-05T03:55:23.092Z,960.74
2016-02-05T03:56:23.047Z,960.76
2016-02-05T03:57:22.988Z,960.75
2016-02-05T03:58:22.932Z,960.75
2016-02-05T03:59:22.887Z,960.81
2016-02-05T04:00:22.817Z,960.78
2016-02-05T04:01:22.758Z,960.78
2016-02-05T04:02:22.714Z,960.76
2016-02-05T04:03:22.654Z,960.81
2016-02-05T04:04:22.578Z,960.82
2016-02-05T04:05:22.551Z,960.81
2016-02-05T04:06:22.509Z,960.84
2016-02-05T04:07:22.434Z,960.87
2016-02-05T04:08:22.358Z,960.86
2016-02-05T04:09:22.314Z,960.94
2016-02-05T04:10:22.270Z,960.93
2016-02-05T04:11:22.210Z,960.92
2016-02-05T04:12:22.166Z,960.96
2016-02-05T04:13:22.091Z,960.96
2016-02-05T04:14:22.046Z,960.98
2016-02-05T04:15:21.971Z,961.02
2016-02-05T04:16:21.927Z,961
2016-02-05T04:17:21.851Z,961.04
2016-02-05T04:18:21.808Z,961.01
2016-02-05T04:19:21.763Z,961.06
2016-02-05T04:20:21.689Z,961.08
2016-02-05T04:21:21.644Z,961.09
2016-02-05T04:22:21.600Z,961.1
2016-02-05T04:23:21.530Z,961.14
2016-02-05T04:24:21.471Z,961.12
2016-02-05T04:25:21.426Z,961.13
2016-02-05T04:26:21.350Z,961.16
2016-02-05T04:27:21.306Z,961.18
2016-02-05T04:28:21.262Z,961.18
2016-02-05T04:29:21.185Z,961.23
2016-02-05T04:30:21.125Z,961.22
2016-02-05T04:31:21.081Z,961.24
2016-02-05T04:32:21.037Z,961.21
2016-02-05T04:33:20.955Z,961.21
2016-02-05T04:34:20.903Z,961.18
2016-02-05T04:35:20.835Z,961.19
2016-02-05T04:36:20.767Z,961.21
2016-02-05T04:37:20.715Z,961.22
2016-02-05T04:38:20.653Z,961.2
2016-02-05T04:39:20.589Z,961.2
2016-02-05T04:40:20.542Z,961.19
2016-02-05T04:41:20.465Z,961.19
2016-02-05T04:42:20.403Z,961.15
2016-02-05T04:43:20.358Z,961.13
2016-02-05T04:44:20.312Z,961.15
2016-02-05T04:45:20.251Z,961.17
2016-02-05T04:46:20.190Z,961.17
2016-02-05T04:47:20.129Z,961.18
2016-02-05T04:48:20.099Z,961.16
2016-02-05T04:49:20.024Z,961.19
2016-02-05T04:50:19.964Z,961.17
2016-02-05T04:51:19.921Z,961.2
2016-02-05T04:52:19.845Z,961.22
2016-02-05T04:53:19.801Z,961.21
2016-02-05T04:54:19.741Z,961.21
2016-02-05T04:55:19.712Z,961.23
2016-02-05T04:56:19.625Z,961.2
2016-02-05T04:57:19.581Z,961.22
2016-02-05T04:58:19.506Z,961.21
2016-02-05T04:59:19.447Z,961.19
2016-02-05T05:00:19.420Z,961.18
2016-02-05T05:01:19.344Z,961.18
2016-02-05T05:02:19.285Z,961.22
2016-02-05T05:03:19.243Z,961.24
2016-02-05T05:04:19.169Z,961.2
2016-02-05T05:05:19.108Z,961.21
2016-02-05T05:06:19.063Z,961.19
2016-02-05T05:07:19.004Z,961.16
2016-02-05T05:08:18.945Z,961.14
2016-02-05T05:09:18.900Z,961.19
2016-02-05T05:10:18.840Z,961.16
2016-02-05T05:11:18.780Z,961.16
2016-02-05T05:12:18.736Z,961.16
2016-02-05T05:13:18.661Z,961.15
2016-02-05T05:14:18.632Z,961.16
2016-02-05T05:15:18.557Z,961.18
2016-02-05T05:16:18.497Z,961.17
2016-02-05T05:17:18.438Z,961.21
2016-02-05T05:18:18.394Z,961.16
2016-02-05T05:19:18.334Z,961.16
2016-02-05T05:20:18.274Z,961.18
2016-02-05T05:21:18.230Z,961.19
2016-02-05T05:22:18.171Z,961.19
2016-02-05T05:23:18.127Z,961.21
2016-02-05T05:24:18.052Z,961.23
2016-02-05T05:25:18.008Z,961.23
2016-02-05T05:26:17.948Z,961.23
2016-02-05T05:27:17.903Z,961.23
2016-02-05T05:28:17.844Z,961.23
2016-02-05T05:29:17.788Z,961.21
2016-02-05T05:30:17.715Z,961.21
2016-02-05T05:31:17.687Z,961.21
2016-02-05T05:32:17.612Z,961.25
2016-02-05T05:33:17.567Z,961.28
2016-02-05T05:34:17.507Z,961.24
2016-02-05T05:35:17.464Z,961.29
2016-02-05T05:36:17.408Z,961.29
2016-02-05T05:37:17.347Z,961.28
2016-02-05T05:38:17.288Z,961.31
2016-02-05T05:39:17.244Z,961.36
2016-02-05T05:40:17.169Z,961.34
2016-02-05T05:41:17.124Z,961.34
2016-02-05T05:42:17.064Z,961.37
2016-02-05T05:43:17.021Z,961.4
2016-02-05T05:44:16.961Z,961.41
2016-02-05T05:45:16.917Z,961.35
2016-02-05T05:46:16.826Z,961.39
2016-02-05T05:47:16.766Z,961.4
2016-02-05T05:48:16.738Z,961.4
2016-02-05T05:49:16.663Z,961.39
2016-02-05T05:50:16.619Z,961.43
2016-02-05T05:51:16.559Z,961.42
2016-02-05T05:52:16.514Z,961.45
2016-02-05T05:53:16.456Z,961.46
2016-02-05T05:54:16.395Z,961.51
2016-02-05T05:55:16.320Z,961.51
2016-02-05T05:56:16.275Z,961.56
2016-02-05T05:57:16.215Z,961.52
2016-02-05T05:58:16.156Z,961.54
2016-02-05T05:59:16.112Z,961.58
2016-02-05T06:00:16.053Z,961.6
2016-02-05T06:01:15.992Z,961.64
2016-02-05T06:02:15.965Z,961.61
2016-02-05T06:03:15.905Z,961.62
2016-02-05T06:04:15.830Z,961.65
2016-02-05T06:05:15.770Z,961.66
2016-02-05T06:06:15.725Z,961.69
2016-02-05T06:07:15.666Z,961.74
2016-02-05T06:08:15.606Z,961.73
2016-02-05T06:09:15.563Z,961.73
2016-02-05T06:10:15.503Z,961.76
2016-02-05T06:11:15.428Z,961.76
2016-02-05T06:12:15.383Z,961.7
2016-02-05T06:13:15.339Z,961.74
2016-02-05T06:14:15.264Z,961.72
2016-02-05T06:15:15.220Z,961.74
2016-02-05T06:16:15.176Z,961.7
2016-02-05T06:17:15.116Z,961.69
2016-02-05T06:18:15.041Z,961.74
2016-02-05T06:19:14.999Z,961.74
2016-02-05T06:20:14.954Z,961.74
2016-02-05T06:21:14.879Z,961.85
2016-02-05T06:22:14.838Z,961.82
2016-02-05T06:23:14.778Z,961.89
2016-02-05T06:24:14.703Z,961.87
2016-02-05T06:25:14.642Z,961.96
2016-02-05T06:26:14.599Z,961.95
2016-02-05T06:27:14.554Z,961.96
2016-02-05T06:28:14.480Z,961.98
2016-02-05T06:29:14.453Z,961.94
2016-02-05T06:30:14.387Z,961.97
2016-02-05T06:31:14.311Z,961.96
2016-02-05T06:32:14.267Z,961.98
2016-02-05T06:33:14.223Z,961.95
2016-02-05T06:34:14.148Z,961.94
2016-02-05T06:35:14.103Z,961.94
2016-02-05T06:36:14.044Z,961.98
2016-02-05T06:37:14.000Z,961.96
2016-02-05T06:38:13.939Z,961.94
2016-02-05T06:39:13.864Z,961.98
2016-02-05T06:40:13.820Z,961.99
2016-02-05T06:41:13.761Z,962
2016-02-05T06:42:13.701Z,962.02
2016-02-05T06:43:13.657Z,962.05
2016-02-05T06:44:13.597Z,962.02
2016-02-05T06:45:13.537Z,962.05
2016-02-05T06:46:13.493Z,962.09
2016-02-05T06:47:13.450Z,962.1
2016-02-05T06:48:13.373Z,962.1
2016-02-05T06:49:13.329Z,962.15
2016-02-05T06:50:13.253Z,962.15
2016-02-05T06:51:13.226Z,962.16
2016-02-05T06:52:13.134Z,962.15
2016-02-05T06:53:13.090Z,962.17
2016-02-05T06:54:13.031Z,962.13
2016-02-05T06:55:12.971Z,962.15
2016-02-05T06:56:12.912Z,962.13
2016-02-05T06:57:12.867Z,962.11
2016-02-05T06:58:12.839Z,962.14
2016-02-05T06:59:12.763Z,962.17
2016-02-05T07:00:12.701Z,962.15
2016-02-05T07:01:12.656Z,962.14
2016-02-05T07:02:12.597Z,962.16
2016-02-05T07:03:12.521Z,962.17
2016-02-05T07:04:12.525Z,962.15
2016-02-05T07:05:12.434Z,962.16
2016-02-05T07:06:12.375Z,962.19
2016-02-05T07:07:12.314Z,962.16
2016-02-05T07:08:12.270Z,962.16
2016-02-05T07:09:12.212Z,962.15
2016-02-05T07:10:12.151Z,962.17
2016-02-05T07:11:12.076Z,962.13
2016-02-05T07:12:12.031Z,962.13
2016-02-05T07:13:11.973Z,962.08
2016-02-05T07:14:11.929Z,962.07
2016-02-05T07:15:11.854Z,962.03
2016-02-05T07:16:11.809Z,961.99
2016-02-05T07:17:11.749Z,961.93
2016-02-05T07:18:11.690Z,961.95
2016-02-05T07:19:11.662Z,961.96
2016-02-05T07:20:11.601Z,961.95
2016-02-05T07:21:11.526Z,962.04
2016-02-05T07:22:11.473Z,962.08
2016-02-05T07:23:11.428Z,962.06
2016-02-05T07:24:11.353Z,962.09
2016-02-05T07:25:11.309Z,962.08
2016-02-05T07:26:11.265Z,962.09
2016-02-05T07:27:11.190Z,962.14
2016-02-05T07:28:11.146Z,962.14
2016-02-05T07:29:11.087Z,962.2
2016-02-05T07:30:11.028Z,962.1
2016-02-05T07:31:10.985Z,962.14
2016-02-05T07:32:10.925Z,962.09
2016-02-05T07:33:10.865Z,962.08
2016-02-05T07:34:10.805Z,962.09
2016-02-05T07:35:10.747Z,962.11
2016-02-05T07:36:10.704Z,962.1
2016-02-05T07:37:10.643Z,962.12
2016-02-05T07:38:10.584Z,962.1
2016-02-05T07:39:10.539Z,962.14
2016-02-05T07:40:10.480Z,962.17
2016-02-05T07:41:10.435Z,962.14
2016-02-05T07:42:10.360Z,962.12
2016-02-05T07:43:10.315Z,962.09
2016-02-05T07:44:10.255Z,962.09
2016-02-05T07:45:10.212Z,962.12
2016-02-05T07:46:10.137Z,962.21
2016-02-05T07:47:10.092Z,962.16
2016-02-05T07:48:10.031Z,962.2
2016-02-05T07:49:09.956Z,962.25
2016-02-05T07:50:09.928Z,962.25
2016-02-05T07:51:09.868Z,962.33
2016-02-05T07:52:09.824Z,962.37
2016-02-05T07:53:09.749Z,962.33
2016-02-05T07:54:09.704Z,962.34
2016-02-05T07:55:09.632Z,962.36
2016-02-05T07:56:09.571Z,962.39
2016-02-05T07:57:09.527Z,962.3
2016-02-05T07:58:09.467Z,962.36
2016-02-05T07:59:09.423Z,962.35
2016-02-05T08:00:09.348Z,962.39
2016-02-05T08:01:09.309Z,962.36
2016-02-05T08:02:09.268Z,962.36
2016-02-05T08:03:09.208Z,962.31
2016-02-05T08:04:09.133Z,962.29
2016-02-05T08:05:09.074Z,962.31
2016-02-05T08:06:09.044Z,962.32
2016-02-05T08:07:08.985Z,962.31
2016-02-05T08:08:08.926Z,962.29
2016-02-05T08:09:08.866Z,962.27
2016-02-05T08:10:08.822Z,962.32
2016-02-05T08:11:08.761Z,962.33
2016-02-05T08:12:08.686Z,962.39
2016-02-05T08:13:08.642Z,962.37
2016-02-05T08:14:08.582Z,962.4
2016-02-05T08:15:08.554Z,962.39
2016-02-05T08:16:08.479Z,962.36
2016-02-05T08:17:08.434Z,962.34
2016-02-05T08:18:08.390Z,962.31
2016-02-05T08:19:08.330Z,962.33
2016-02-05T08:20:08.257Z,962.32
2016-02-05T08:21:08.198Z,962.32
2016-02-05T08:22:08.170Z,962.35
2016-02-05T08:23:08.094Z,962.36
2016-02-05T08:24:08.049Z,962.36
2016-02-05T08:25:07.974Z,962.32
2016-02-05T08:26:07.946Z,962.37
2016-02-05T08:27:07.886Z,962.4
2016-02-05T08:28:07.828Z,962.39
2016-02-05T08:29:07.784Z,962.45
2016-02-05T08:30:07.725Z,962.46
2016-02-05T08:31:07.650Z,962.48
2016-02-05T08:32:07.622Z,962.51
2016-02-05T08:33:07.547Z,962.51
2016-02-05T08:34:07.502Z,962.46
2016-02-05T08:35:07.443Z,962.49
2016-02-05T08:36:07.383Z,962.45
2016-02-05T08:37:07.338Z,962.43
2016-02-05T08:38:07.294Z,962.41
2016-02-05T08:39:07.235Z,962.47
2016-02-05T08:40:07.160Z,962.45
2016-02-05T08:41:07.116Z,962.47
2016-02-05T08:42:07.072Z,962.48
2016-02-05T08:43:07.012Z,962.48
2016-02-05T08:44:06.936Z,962.45
2016-02-05T08:45:06.877Z,962.47
2016-02-05T08:46:06.849Z,962.47
2016-02-05T08:47:06.788Z,962.47
2016-02-05T08:48:06.746Z,962.44
2016-02-05T08:49:06.671Z,962.44
2016-02-05T08:50:06.627Z,962.44
2016-02-05T08:51:06.567Z,962.46
2016-02-05T08:52:06.523Z,962.46
2016-02-05T08:53:06.464Z,962.47
2016-02-05T08:54:06.452Z,962.51
2016-02-05T08:55:06.330Z,962.53
2016-02-05T08:56:06.301Z,962.55
2016-02-05T08:57:06.241Z,962.57
2016-02-05T08:58:06.181Z,962.56
2016-02-05T08:59:06.121Z,962.6
2016-02-05T09:00:06.063Z,962.61
2016-02-05T09:01:06.006Z,962.59
2016-02-05T09:02:05.946Z,962.61
2016-02-05T09:03:05.902Z,962.67
2016-02-05T09:04:05.858Z,962.62
2016-02-05T09:05:05.817Z,962.68
2016-02-05T09:06:05.757Z,962.65
2016-02-05T09:07:05.698Z,962.73
2016-02-05T09:08:05.621Z,962.74
2016-02-05T09:09:05.578Z,962.76
2016-02-05T09:10:05.518Z,962.71
2016-02-05T09:11:05.473Z,962.71
2016-02-05T09:12:05.397Z,962.67
2016-02-05T09:13:05.356Z,962.64
2016-02-05T09:14:05.299Z,962.68
2016-02-05T09:15:05.285Z,962.72
2016-02-05T09:16:05.196Z,962.78
2016-02-05T09:17:05.153Z,962.77
2016-02-05T09:18:05.093Z,962.71
2016-02-05T09:19:05.018Z,962.74
2016-02-05T09:20:04.965Z,962.71
2016-02-05T09:21:04.921Z,962.69
2016-02-05T09:22:04.862Z,962.68
2016-02-05T09:23:04.801Z,962.68
2016-02-05T09:24:04.757Z,962.66
2016-02-05T09:25:04.713Z,962.72
2016-02-05T09:26:04.641Z,962.68
2016-02-05T09:27:04.582Z,962.7
2016-02-05T09:28:04.553Z,962.66
2016-02-05T09:29:04.477Z,962.63
2016-02-05T09:30:04.418Z,962.65
2016-02-05T09:31:04.373Z,962.6
2016-02-05T09:32:04.329Z,962.62
2016-02-05T09:33:04.270Z,962.55
2016-02-05T09:34:04.210Z,962.62
2016-02-05T09:35:04.150Z,962.63
2016-02-05T09:36:04.122Z,962.64
2016-02-05T09:37:04.046Z,962.66
2016-02-05T09:38:03.987Z,962.7
2016-02-05T09:39:03.926Z,962.71
2016-02-05T09:40:03.882Z,962.64
2016-02-05T09:41:03.838Z,962.61
2016-02-05T09:42:03.778Z,962.63
2016-02-05T09:43:03.718Z,962.61
2016-02-05T09:44:03.689Z,962.58
2016-02-05T09:45:03.614Z,962.57
2016-02-05T09:46:03.571Z,962.54
2016-02-05T09:47:03.496Z,962.52
2016-02-05T09:48:03.438Z,962.52
2016-02-05T09:49:03.396Z,962.45
2016-02-05T09:50:03.335Z,962.48
2016-02-05T09:51:03.275Z,962.48
2016-02-05T09:52:03.231Z,962.49
2016-02-05T09:53:03.187Z,962.51
2016-02-05T09:54:03.128Z,962.5
2016-02-05T09:55:03.069Z,962.57
2016-02-05T09:56:03.024Z,962.61
2016-02-05T09:57:03.168Z,962.63
2016-02-05T09:58:02.921Z,962.64
2016-02-05T09:59:02.862Z,962.61
2016-02-05T10:00:02.786Z,962.6
2016-02-05T10:01:02.758Z,962.62
2016-02-05T10:02:02.683Z,962.63
2016-02-05T10:03:02.654Z,962.61
2016-02-05T10:04:02.595Z,962.64
2016-02-05T10:05:02.535Z,962.64
2016-02-05T10:06:02.460Z,962.6
2016-02-05T10:07:02.432Z,962.64
2016-02-05T10:08:02.357Z,962.65
2016-02-05T10:09:02.312Z,962.68
2016-02-05T10:10:02.268Z,962.66
2016-02-05T10:11:02.208Z,962.69
2016-02-05T10:12:02.148Z,962.67
2016-02-05T10:13:02.088Z,962.64
2016-02-05T10:14:02.029Z,962.63
2016-02-05T10:15:01.984Z,962.67
2016-02-05T10:16:01.927Z,962.64
2016-02-05T10:17:01.897Z,962.69
2016-02-05T10:18:01.838Z,962.66
2016-02-05T10:19:01.764Z,962.66
2016-02-05T10:20:01.720Z,962.64
2016-02-05T10:21:01.644Z,962.64
2016-02-05T10:22:01.615Z,962.64
2016-02-05T10:23:01.540Z,962.65
2016-02-05T10:24:01.496Z,962.63
2016-02-05T10:25:01.451Z,962.64
2016-02-05T10:26:01.392Z,962.64
2016-02-05T10:27:01.347Z,962.66
2016-02-05T10:28:01.273Z,962.66
2016-02-05T10:29:01.228Z,962.66
2016-02-05T10:30:01.169Z,962.67
2016-02-05T10:31:01.108Z,962.66
2016-02-05T10:32:01.064Z,962.68
2016-02-05T10:33:01.005Z,962.63
2016-02-05T10:34:00.948Z,962.58
2016-02-05T10:35:00.903Z,962.59
2016-02-05T10:36:00.844Z,962.59
2016-02-05T10:37:00.862Z,962.53
2016-02-05T10:38:00.740Z,962.5
2016-02-05T10:39:00.682Z,962.53
2016-02-05T10:40:00.607Z,962.55
2016-02-05T10:41:00.594Z,962.55
2016-02-05T10:42:00.518Z,962.55
2016-02-05T10:43:00.458Z,962.5
2016-02-05T10:44:00.399Z,962.47
2016-02-05T10:45:00.354Z,962.5
2016-02-05T10:46:00.310Z,962.42
2016-02-05T10:47:00.235Z,962.41
2016-02-05T10:48:00.190Z,962.43
2016-02-05T10:49:00.131Z,962.43
2016-02-05T10:50:00.071Z,962.39
2016-02-05T10:51:00.026Z,962.4
2016-02-05T10:51:59.982Z,962.41
2016-02-05T10:52:59.923Z,962.43
2016-02-05T10:53:59.894Z,962.44
2016-02-05T10:54:59.819Z,962.43
2016-02-05T10:55:59.759Z,962.42
2016-02-05T10:56:59.700Z,962.4
2016-02-05T10:57:59.639Z,962.41
2016-02-05T10:58:59.596Z,962.39
2016-02-05T10:59:59.552Z,962.39
2016-02-05T11:00:59.476Z,962.37
2016-02-05T11:01:59.432Z,962.34
2016-02-05T11:02:59.375Z,962.35
2016-02-05T11:03:59.330Z,962.32
2016-02-05T11:04:59.270Z,962.32
2016-02-05T11:05:59.227Z,962.3
2016-02-05T11:06:59.166Z,962.25
2016-02-05T11:07:59.122Z,962.28
2016-02-05T11:08:59.046Z,962.26
2016-02-05T11:09:59.002Z,962.22
2016-02-05T11:10:58.958Z,962.21
2016-02-05T11:11:58.900Z,962.21
2016-02-05T11:12:58.855Z,962.18
2016-02-05T11:13:58.780Z,962.13
2016-02-05T11:14:58.736Z,962.14
2016-02-05T11:15:58.691Z,962.12
2016-02-05T11:16:58.633Z,962.15
2016-02-05T11:17:58.573Z,962.1
2016-02-05T11:18:58.513Z,962.08
2016-02-05T11:19:58.487Z,962.09
2016-02-05T11:20:58.442Z,962.07
2016-02-05T11:21:58.352Z,962.08
2016-02-05T11:22:58.307Z,962.05
2016-02-05T11:23:58.263Z,962.01
2016-02-05T11:24:58.220Z,962.02
2016-02-05T11:25:58.160Z,962.04
2016-02-05T11:26:58.100Z,962.01
2016-02-05T11:27:58.025Z,961.99
2016-02-05T11:28:58.043Z,962.02
2016-02-05T11:29:57.936Z,961.98
2016-02-05T11:30:57.877Z,961.95
2016-02-05T11:31:57.834Z,961.88
2016-02-05T11:32:57.759Z,961.89
2016-02-05T11:33:57.715Z,961.87
2016-02-05T11:34:57.671Z,961.82
2016-02-05T11:35:57.610Z,961.82
2016-02-05T11:36:57.572Z,961.8
2016-02-05T11:37:57.511Z,961.8
2016-02-05T11:38:57.467Z,961.79
2016-02-05T11:39:57.393Z,961.85
2016-02-05T11:40:57.348Z,961.84
2016-02-05T11:41:57.273Z,961.84
2016-02-05T11:42:57.228Z,961.86
2016-02-05T11:43:57.184Z,961.82
2016-02-05T11:44:57.125Z,961.79
2016-02-05T11:45:57.065Z,961.85
2016-02-05T11:46:57.020Z,961.81
2016-02-05T11:47:56.976Z,961.81
2016-02-05T11:48:56.900Z,961.78
2016-02-05T11:49:56.856Z,961.76
2016-02-05T11:50:56.812Z,961.75
2016-02-05T11:51:56.737Z,961.75
2016-02-05T11:52:56.692Z,961.68
2016-02-05T11:53:56.649Z,961.68
2016-02-05T11:54:56.588Z,961.63
2016-02-05T11:55:56.544Z,961.67
2016-02-05T11:56:56.486Z,961.69
2016-02-05T11:57:56.441Z,961.64
2016-02-05T11:58:56.366Z,961.64
2016-02-05T11:59:56.322Z,961.58
2016-02-05T12:00:56.277Z,961.54
2016-02-05T12:01:56.234Z,961.56
2016-02-05T12:02:56.174Z,961.53
2016-02-05T12:03:56.099Z,961.53
2016-02-05T12:04:56.057Z,961.51
2016-02-05T12:05:56.013Z,961.5
2016-02-05T12:06:55.969Z,961.51
2016-02-05T12:07:55.909Z,961.51
2016-02-05T12:08:55.865Z,961.48
2016-02-05T12:09:55.777Z,961.46
2016-02-05T12:10:55.749Z,961.47
2016-02-05T12:11:55.673Z,961.49
2016-02-05T12:12:55.614Z,961.48
2016-02-05T12:13:55.585Z,961.51
2016-02-05T12:14:55.525Z,961.47
2016-02-05T12:15:55.481Z,961.42
2016-02-05T12:16:55.420Z,961.51
2016-02-05T12:17:55.363Z,961.46
2016-02-05T12:18:55.319Z,961.45
2016-02-05T12:19:55.244Z,961.47
2016-02-05T12:20:55.199Z,961.48
2016-02-05T12:21:55.140Z,961.46
2016-02-05T12:22:55.082Z,961.45
2016-02-05T12:23:55.037Z,961.46
2016-02-05T12:24:54.979Z,961.44
2016-02-05T12:25:54.918Z,961.41
2016-02-05T12:26:54.875Z,961.42
2016-02-05T12:27:54.830Z,961.36
2016-02-05T12:28:54.802Z,961.34
2016-02-05T12:29:54.728Z,961.34